createdAt,value
2018-11-07T00:00:10.092Z,9.90
2018-11-07T00:02:39.163Z,9.90
2018-11-07T00:05:08.015Z,9.80
2018-11-07T00:07:37.003Z,9.80
2018-11-07T00:10:07.022Z,9.90
2018-11-07T00:12:35.895Z,9.90
2018-11-07T00:15:04.845Z,10.00
2018-11-07T00:17:33.707Z,10.00
2018-11-07T00:20:02.572Z,10.10
2018-11-07T00:22:31.773Z,10.10
2018-11-07T00:25:00.647Z,10.00
2018-11-07T00:27:29.655Z,9.90
2018-11-07T00:29:58.553Z,9.90
2018-11-07T00:32:27.284Z,9.90
2018-11-07T00:34:56.594Z,9.80
2018-11-07T00:37:25.438Z,9.80
2018-11-07T00:39:54.666Z,9.80
2018-11-07T00:42:23.590Z,9.80
2018-11-07T00:44:52.766Z,9.70
2018-11-07T00:47:21.625Z,9.70
2018-11-07T00:49:50.917Z,9.70
2018-11-07T00:54:59.272Z,9.60
2018-11-07T00:57:28.224Z,9.60
2018-11-07T00:59:56.900Z,9.70
2018-11-07T01:02:25.742Z,9.70
2018-11-07T01:04:54.481Z,9.80
2018-11-07T01:07:23.302Z,9.80
2018-11-07T01:09:52.054Z,9.80
2018-11-07T01:12:20.787Z,9.80
2018-11-07T01:14:49.428Z,9.80
2018-11-07T01:17:18.118Z,9.80
2018-11-07T01:19:46.840Z,9.80
2018-11-07T01:22:15.483Z,9.80
2018-11-07T01:24:44.168Z,9.80
2018-11-07T01:27:12.823Z,9.80
2018-11-07T01:29:41.650Z,9.70
2018-11-07T01:32:10.403Z,9.60
2018-11-07T01:34:39.141Z,9.50
2018-11-07T01:37:07.859Z,9.50
2018-11-07T01:39:37.846Z,9.50
2018-11-07T01:42:06.597Z,9.40
2018-11-07T01:44:35.416Z,9.30
2018-11-07T01:47:04.221Z,9.30
2018-11-07T01:49:33.013Z,9.30
2018-11-07T01:52:01.680Z,9.30
2018-11-07T01:54:30.391Z,9.30
2018-11-07T01:56:59.269Z,9.30
2018-11-07T01:59:27.973Z,9.40
2018-11-07T02:01:57.101Z,9.40
2018-11-07T02:04:25.837Z,9.50
2018-11-07T02:06:54.742Z,9.60
2018-11-07T02:09:23.396Z,9.60
2018-11-07T02:11:52.118Z,9.60
2018-11-07T02:14:20.737Z,9.60
2018-11-07T02:16:49.547Z,9.70
2018-11-07T02:19:18.278Z,9.70
2018-11-07T02:21:47.053Z,9.70
2018-11-07T02:24:15.926Z,9.70
2018-11-07T02:26:44.676Z,9.80
2018-11-07T02:29:14.096Z,9.80
2018-11-07T02:31:44.952Z,9.80
2018-11-07T02:34:14.555Z,9.80
2018-11-07T02:36:43.631Z,9.80
2018-11-07T02:39:15.506Z,9.80
2018-11-07T02:41:44.485Z,9.80
2018-11-07T02:44:14.153Z,9.80
2018-11-07T02:46:44.047Z,9.80
2018-11-07T02:49:12.779Z,9.70
2018-11-07T02:51:41.614Z,9.60
2018-11-07T02:54:10.404Z,9.60
2018-11-07T02:56:39.414Z,9.60
2018-11-07T02:59:08.114Z,9.50
2018-11-07T03:01:36.964Z,9.60
2018-11-07T03:04:06.105Z,9.60
2018-11-07T03:06:34.907Z,9.70
2018-11-07T03:09:05.323Z,9.70
2018-11-07T03:11:34.026Z,9.70
2018-11-07T03:14:02.788Z,9.70
2018-11-07T03:16:31.485Z,9.60
2018-11-07T03:19:00.266Z,9.60
2018-11-07T03:21:28.981Z,9.50
2018-11-07T03:23:58.074Z,9.50
2018-11-07T03:26:26.755Z,9.40
2018-11-07T03:28:55.513Z,9.40
2018-11-07T03:31:24.194Z,9.30
2018-11-07T03:33:53.534Z,9.40
2018-11-07T03:36:22.308Z,9.40
2018-11-07T03:38:51.099Z,9.40
2018-11-07T03:41:19.756Z,9.40
2018-11-07T03:43:48.489Z,9.50
2018-11-07T03:46:17.132Z,9.50
2018-11-07T03:48:46.151Z,9.50
2018-11-07T03:51:14.806Z,9.40
2018-11-07T03:53:43.609Z,9.40
2018-11-07T03:56:12.299Z,9.40
2018-11-07T03:58:41.084Z,9.40
2018-11-07T04:01:09.887Z,9.40
2018-11-07T04:03:38.649Z,9.30
2018-11-07T04:06:07.414Z,9.30
2018-11-07T04:08:36.354Z,9.20
2018-11-07T04:11:05.313Z,9.20
2018-11-07T04:13:34.014Z,9.20
2018-11-07T04:16:03.070Z,9.10
2018-11-07T04:18:31.871Z,9.10
2018-11-07T04:21:00.832Z,9.00
2018-11-07T04:23:29.683Z,9.10
2018-11-07T04:25:58.572Z,9.10
2018-11-07T04:28:27.225Z,9.00
2018-11-07T04:30:55.952Z,9.00
2018-11-07T04:33:24.716Z,9.10
2018-11-07T04:35:53.640Z,9.00
2018-11-07T04:38:22.322Z,9.00
2018-11-07T04:40:52.041Z,8.90
2018-11-07T04:43:20.740Z,9.00
2018-11-07T04:45:49.421Z,9.00
2018-11-07T04:48:18.226Z,9.00
2018-11-07T04:50:46.963Z,8.90
2018-11-07T04:53:15.826Z,9.00
2018-11-07T04:55:44.704Z,9.10
2018-11-07T04:58:13.559Z,9.10
2018-11-07T05:00:42.200Z,9.10
2018-11-07T05:03:11.853Z,9.20
2018-11-07T05:05:40.718Z,9.20
2018-11-07T05:08:09.324Z,9.30
2018-11-07T05:10:38.115Z,9.30
2018-11-07T05:13:06.878Z,9.30
2018-11-07T05:15:35.679Z,9.30
2018-11-07T05:18:04.708Z,9.30
2018-11-07T05:20:33.564Z,9.30
2018-11-07T05:23:02.327Z,9.20
2018-11-07T05:25:31.112Z,9.20
2018-11-07T05:28:00.111Z,9.20
2018-11-07T05:30:28.845Z,9.20
2018-11-07T05:32:57.727Z,9.10
2018-11-07T05:35:26.371Z,9.10
2018-11-07T05:37:55.796Z,9.00
2018-11-07T05:40:24.502Z,9.10
2018-11-07T05:42:53.232Z,9.00
2018-11-07T05:45:22.700Z,9.10
2018-11-07T05:47:51.569Z,9.10
2018-11-07T05:50:20.240Z,9.10
2018-11-07T05:52:49.094Z,9.20
2018-11-07T05:55:17.832Z,9.20
2018-11-07T05:57:46.615Z,9.20
2018-11-07T06:00:15.437Z,9.30
2018-11-07T06:02:44.867Z,9.40
2018-11-07T06:05:13.803Z,9.40
2018-11-07T06:07:42.427Z,9.40
2018-11-07T06:10:12.859Z,9.40
2018-11-07T06:12:41.992Z,9.50
2018-11-07T06:15:11.433Z,9.50
2018-11-07T06:17:40.169Z,9.40
2018-11-07T06:20:09.986Z,9.40
2018-11-07T06:22:39.306Z,9.40
2018-11-07T06:25:08.166Z,9.50
2018-11-07T06:27:36.940Z,9.60
2018-11-07T06:30:08.646Z,9.70
2018-11-07T06:32:37.434Z,9.70
2018-11-07T06:35:08.307Z,9.70
2018-11-07T06:37:36.964Z,9.80
2018-11-07T06:40:08.134Z,9.80
2018-11-07T06:42:36.867Z,9.90
2018-11-07T06:45:06.652Z,10.00
2018-11-07T06:47:35.228Z,10.00
2018-11-07T06:50:04.439Z,10.00
2018-11-07T06:52:33.037Z,9.90
2018-11-07T06:55:01.851Z,9.80
2018-11-07T06:57:30.645Z,9.80
2018-11-07T06:59:59.344Z,9.80
2018-11-07T07:02:28.161Z,9.80
2018-11-07T07:04:56.893Z,9.80
2018-11-07T07:07:26.206Z,9.80
2018-11-07T07:09:55.199Z,9.80
2018-11-07T07:12:25.439Z,9.90
2018-11-07T07:14:54.215Z,9.80
2018-11-07T07:17:22.905Z,9.80
2018-11-07T07:19:51.863Z,9.90
2018-11-07T07:22:20.478Z,9.90
2018-11-07T07:24:49.175Z,9.80
2018-11-07T07:27:17.846Z,9.90
2018-11-07T07:29:46.760Z,9.90
2018-11-07T07:32:15.335Z,9.80
2018-11-07T07:34:44.174Z,9.90
2018-11-07T07:37:13.601Z,10.00
2018-11-07T07:39:42.383Z,10.00
2018-11-07T07:42:11.391Z,10.00
2018-11-07T07:44:40.374Z,10.20
2018-11-07T07:47:10.018Z,10.20
2018-11-07T07:49:39.400Z,10.30
2018-11-07T07:52:08.680Z,10.40
2018-11-07T07:54:37.696Z,10.40
2018-11-07T07:57:07.386Z,10.60
2018-11-07T07:59:38.475Z,10.70
2018-11-07T08:02:08.201Z,10.70
2018-11-07T08:04:37.046Z,10.70
2018-11-07T08:07:07.063Z,10.80
2018-11-07T08:09:35.775Z,10.80
2018-11-07T08:12:04.603Z,10.80
2018-11-07T08:14:33.473Z,10.90
2018-11-07T08:17:02.309Z,10.90
2018-11-07T08:19:31.202Z,11.00
2018-11-07T08:21:59.901Z,11.00
2018-11-07T08:24:29.217Z,11.00
2018-11-07T08:26:57.875Z,11.10
2018-11-07T08:29:26.716Z,11.20
2018-11-07T08:31:55.274Z,11.30
2018-11-07T08:34:24.091Z,11.40
2018-11-07T08:36:52.892Z,11.40
2018-11-07T08:39:21.522Z,11.40
2018-11-07T08:41:50.158Z,11.60
2018-11-07T08:44:19.882Z,11.60
2018-11-07T08:46:49.201Z,11.70
2018-11-07T08:49:17.874Z,11.70
2018-11-07T08:51:46.457Z,11.80
2018-11-07T08:54:15.582Z,11.90
2018-11-07T08:56:44.345Z,12.00
2018-11-07T08:59:13.161Z,12.10
2018-11-07T09:01:45.088Z,12.20
2018-11-07T09:04:16.435Z,12.30
2018-11-07T09:06:47.124Z,12.40
2018-11-07T09:09:18.507Z,12.60
2018-11-07T09:11:50.342Z,12.60
2018-11-07T09:14:19.306Z,12.70
2018-11-07T09:16:49.343Z,12.80
2018-11-07T09:19:20.801Z,12.80
2018-11-07T09:21:49.494Z,12.90
2018-11-07T09:24:18.389Z,13.00
2018-11-07T09:26:47.038Z,13.00
2018-11-07T09:29:16.041Z,13.10
2018-11-07T09:31:44.697Z,13.20
2018-11-07T09:34:13.473Z,13.20
2018-11-07T09:36:42.172Z,13.30
2018-11-07T09:39:11.410Z,13.40
2018-11-07T09:41:40.066Z,13.40
2018-11-07T09:44:09.083Z,13.40
2018-11-07T09:46:38.552Z,13.50
2018-11-07T09:49:07.097Z,13.50
2018-11-07T09:51:35.985Z,13.60
2018-11-07T09:54:04.788Z,13.60
2018-11-07T09:56:33.366Z,13.70
2018-11-07T09:59:02.208Z,13.70
2018-11-07T10:01:30.860Z,13.70
2018-11-07T10:03:59.510Z,13.80
2018-11-07T10:06:28.189Z,13.90
2018-11-07T10:08:57.884Z,14.00
2018-11-07T10:11:26.574Z,14.00
2018-11-07T10:13:55.359Z,14.10
2018-11-07T10:16:24.045Z,14.10
2018-11-07T10:18:52.559Z,14.20
2018-11-07T10:21:21.294Z,14.30
2018-11-07T10:23:49.902Z,14.40
2018-11-07T10:26:19.622Z,14.50
2018-11-07T10:28:48.454Z,14.50
2018-11-07T10:31:18.652Z,14.50
2018-11-07T10:33:50.306Z,14.60
2018-11-07T10:36:20.544Z,14.60
2018-11-07T10:38:49.355Z,14.70
2018-11-07T10:41:19.334Z,14.80
2018-11-07T10:43:48.028Z,14.80
2018-11-07T10:46:16.543Z,14.90
2018-11-07T10:48:45.563Z,15.00
2018-11-07T10:51:14.320Z,15.10
2018-11-07T10:53:43.009Z,15.20
2018-11-07T10:56:11.661Z,15.30
2018-11-07T10:58:40.324Z,15.30
2018-11-07T11:01:16.868Z,15.40
2018-11-07T11:03:45.553Z,15.40
2018-11-07T11:06:14.227Z,15.50
2018-11-07T11:08:43.052Z,15.50
2018-11-07T11:13:45.229Z,15.70
2018-11-07T11:16:13.902Z,15.70
2018-11-07T11:18:42.706Z,15.80
2018-11-07T11:21:11.461Z,15.90
2018-11-07T11:23:40.140Z,16.00
2018-11-07T11:26:08.781Z,16.00
2018-11-07T11:28:37.338Z,16.10
2018-11-07T11:31:05.996Z,16.10
2018-11-07T11:33:34.523Z,16.10
2018-11-07T11:36:03.099Z,16.20
2018-11-07T11:38:31.596Z,16.30
2018-11-07T11:41:00.432Z,16.30
2018-11-07T11:43:29.011Z,16.40
2018-11-07T11:45:57.639Z,16.40
2018-11-07T11:48:26.355Z,16.40
2018-11-07T11:50:56.108Z,16.50
2018-11-07T11:53:25.074Z,16.60
2018-11-07T11:55:53.732Z,16.60
2018-11-07T11:58:22.695Z,16.60
2018-11-07T12:00:51.794Z,16.60
2018-11-07T12:03:20.585Z,16.70
2018-11-07T12:05:49.375Z,16.60
2018-11-07T12:08:18.525Z,16.60
2018-11-07T12:10:47.137Z,16.60
2018-11-07T12:13:15.920Z,16.50
2018-11-07T12:15:44.483Z,16.50
2018-11-07T12:18:13.137Z,16.50
2018-11-07T12:20:41.713Z,16.60
2018-11-07T12:23:10.334Z,16.70
2018-11-07T12:25:38.994Z,16.80
2018-11-07T12:28:07.666Z,16.80
2018-11-07T12:30:36.357Z,16.90
2018-11-07T12:33:05.191Z,16.90
2018-11-07T12:35:33.900Z,17.00
2018-11-07T12:38:02.480Z,17.10
2018-11-07T12:40:31.120Z,17.10
2018-11-07T12:42:59.860Z,17.10
2018-11-07T12:45:28.653Z,17.20
2018-11-07T12:47:57.260Z,17.20
2018-11-07T12:50:27.054Z,17.20
2018-11-07T12:52:55.650Z,17.10
2018-11-07T12:55:24.621Z,17.10
2018-11-07T12:57:53.583Z,17.00
2018-11-07T13:00:24.379Z,17.00
2018-11-07T13:02:53.272Z,16.90
2018-11-07T13:05:22.907Z,16.90
2018-11-07T13:07:52.616Z,16.90
2018-11-07T13:10:22.112Z,16.90
2018-11-07T13:12:51.386Z,17.00
2018-11-07T13:15:20.091Z,17.00
2018-11-07T13:17:49.707Z,17.00
2018-11-07T13:20:19.803Z,17.10
2018-11-07T13:22:49.694Z,17.10
2018-11-07T13:25:18.768Z,17.20
2018-11-07T13:27:47.307Z,17.20
2018-11-07T13:30:17.347Z,17.20
2018-11-07T13:32:45.981Z,17.20
2018-11-07T13:35:15.395Z,17.20
2018-11-07T13:37:44.960Z,17.20
2018-11-07T13:40:16.452Z,17.20
2018-11-07T13:42:45.083Z,17.20
2018-11-07T13:45:15.584Z,17.20
2018-11-07T13:47:45.351Z,17.20
2018-11-07T13:50:14.649Z,17.10
2018-11-07T13:52:43.262Z,17.10
2018-11-07T13:55:12.601Z,17.10
2018-11-07T13:57:41.570Z,17.10
2018-11-07T14:00:17.212Z,17.00
2018-11-07T14:02:46.297Z,16.90
2018-11-07T14:05:15.029Z,16.90
2018-11-07T14:07:43.640Z,16.90
2018-11-07T14:10:18.721Z,16.70
2018-11-07T14:12:47.775Z,16.80
2018-11-07T14:15:16.601Z,16.70
2018-11-07T14:17:45.491Z,16.70
2018-11-07T14:20:14.110Z,16.70
2018-11-07T14:22:42.874Z,16.60
2018-11-07T14:25:12.043Z,16.60
2018-11-07T14:27:40.935Z,16.60
2018-11-07T14:30:10.600Z,16.60
2018-11-07T14:32:42.020Z,16.60
2018-11-07T14:35:10.631Z,16.50
2018-11-07T14:37:39.443Z,16.50
2018-11-07T14:40:08.243Z,16.50
2018-11-07T14:42:37.846Z,16.50
2018-11-07T14:45:07.411Z,16.40
2018-11-07T14:47:36.251Z,16.40
2018-11-07T14:50:06.396Z,16.40
2018-11-07T14:52:35.100Z,16.50
2018-11-07T14:55:03.770Z,16.50
2018-11-07T14:57:34.064Z,16.50
2018-11-07T15:00:02.987Z,16.60
2018-11-07T15:02:31.860Z,16.60
2018-11-07T15:05:00.477Z,16.50
2018-11-07T15:07:29.270Z,16.50
2018-11-07T15:09:58.038Z,16.40
2018-11-07T15:12:26.751Z,16.40
2018-11-07T15:14:55.403Z,16.30
2018-11-07T15:17:24.104Z,16.20
2018-11-07T15:19:52.748Z,16.10
2018-11-07T15:22:21.627Z,16.00
2018-11-07T15:24:50.691Z,15.90
2018-11-07T15:27:19.310Z,15.90
2018-11-07T15:29:48.039Z,15.80
2018-11-07T15:32:16.729Z,15.70
2018-11-07T15:34:45.564Z,15.60
2018-11-07T15:37:14.074Z,15.50
2018-11-07T15:39:43.352Z,15.40
2018-11-07T15:42:11.961Z,15.30
2018-11-07T15:44:40.563Z,15.30
2018-11-07T15:47:09.251Z,15.10
2018-11-07T15:49:42.048Z,15.00
2018-11-07T15:52:10.870Z,15.00
2018-11-07T15:54:39.758Z,15.00
2018-11-07T15:57:08.658Z,14.80
2018-11-07T15:59:37.339Z,14.80
2018-11-07T16:02:06.152Z,14.80
2018-11-07T16:04:34.916Z,14.70
2018-11-07T16:07:03.583Z,14.70
2018-11-07T16:09:32.145Z,14.60
2018-11-07T16:12:01.098Z,14.60
2018-11-07T16:14:30.072Z,14.50
2018-11-07T16:19:39.413Z,14.40
2018-11-07T16:22:08.614Z,14.40
2018-11-07T16:24:37.680Z,14.40
2018-11-07T16:27:06.454Z,14.30
2018-11-07T16:29:35.367Z,14.40
2018-11-07T16:32:04.089Z,14.30
2018-11-07T16:34:32.790Z,14.20
2018-11-07T16:37:01.516Z,14.20
2018-11-07T16:39:30.617Z,14.10
2018-11-07T16:41:59.454Z,14.10
2018-11-07T16:44:28.120Z,14.20
2018-11-07T16:46:57.026Z,14.20
2018-11-07T16:49:25.620Z,14.30
2018-11-07T16:51:54.527Z,14.30
2018-11-07T16:54:23.916Z,14.40
2018-11-07T16:56:52.643Z,14.50
2018-11-07T16:59:21.345Z,14.60
2018-11-07T17:01:50.999Z,14.60
2018-11-07T17:04:19.823Z,14.60
2018-11-07T17:06:49.141Z,14.70
2018-11-07T17:09:17.809Z,14.80
2018-11-07T17:11:46.584Z,14.70
2018-11-07T17:14:15.710Z,14.80
2018-11-07T17:16:44.777Z,14.90
2018-11-07T17:19:13.526Z,15.00
2018-11-07T17:21:42.403Z,15.10
2018-11-07T17:24:11.239Z,15.10
2018-11-07T17:26:41.241Z,15.10
2018-11-07T17:29:10.202Z,15.20
2018-11-07T17:31:39.195Z,15.20
2018-11-07T17:34:08.316Z,15.20
2018-11-07T17:36:37.183Z,15.20
2018-11-07T17:39:08.116Z,15.20
2018-11-07T17:41:36.856Z,15.10
2018-11-07T17:44:05.909Z,15.20
2018-11-07T17:46:35.086Z,15.10
2018-11-07T17:49:03.918Z,15.10
2018-11-07T17:51:33.061Z,15.00
2018-11-07T17:54:02.979Z,14.90
2018-11-07T17:56:32.087Z,14.80
2018-11-07T17:59:01.487Z,14.70
2018-11-07T18:01:30.575Z,14.50
2018-11-07T18:03:59.799Z,14.50
2018-11-07T18:06:28.960Z,14.40
2018-11-07T18:08:58.250Z,14.30
2018-11-07T18:11:27.921Z,14.30
2018-11-07T18:13:57.327Z,14.20
2018-11-07T18:16:26.496Z,14.20
2018-11-07T18:18:55.969Z,14.10
2018-11-07T18:21:25.349Z,14.10
2018-11-07T18:23:57.037Z,14.10
2018-11-07T18:26:26.297Z,14.10
2018-11-07T18:28:56.386Z,14.10
2018-11-07T18:31:25.859Z,14.10
2018-11-07T18:33:55.201Z,14.10
2018-11-07T18:36:24.346Z,14.10
2018-11-07T18:38:53.460Z,14.10
2018-11-07T18:41:23.036Z,14.10
2018-11-07T18:43:53.109Z,14.00
2018-11-07T18:46:22.547Z,13.90
2018-11-07T18:48:51.945Z,13.90
2018-11-07T18:51:21.603Z,13.90
2018-11-07T18:53:51.058Z,13.90
2018-11-07T18:56:20.556Z,13.80
2018-11-07T18:58:50.362Z,13.80
2018-11-07T19:01:19.543Z,13.80
2018-11-07T19:03:50.202Z,13.80
2018-11-07T19:06:19.543Z,13.70
2018-11-07T19:08:48.908Z,13.70
2018-11-07T19:11:19.234Z,13.60
2018-11-07T19:13:48.660Z,13.70
2018-11-07T19:16:18.556Z,13.60
2018-11-07T19:18:48.015Z,13.60
2018-11-07T19:21:17.575Z,13.60
2018-11-07T19:23:46.749Z,13.60
2018-11-07T19:26:15.953Z,13.60
2018-11-07T19:28:46.365Z,13.60
2018-11-07T19:31:15.667Z,13.60
2018-11-07T19:33:46.477Z,13.60
2018-11-07T19:36:16.803Z,13.60
2018-11-07T19:38:46.877Z,13.40
2018-11-07T19:41:16.177Z,13.50
2018-11-07T19:43:46.546Z,13.40
2018-11-07T19:46:15.890Z,13.40
2018-11-07T19:48:45.306Z,13.40
2018-11-07T19:51:14.504Z,13.30
2018-11-07T19:53:45.346Z,13.30
2018-11-07T19:56:14.951Z,13.30
2018-11-07T19:58:45.012Z,13.40
2018-11-07T20:01:14.832Z,13.40
2018-11-07T20:03:44.723Z,13.50
2018-11-07T20:06:14.032Z,13.40
2018-11-07T20:08:43.815Z,13.30
2018-11-07T20:11:13.248Z,13.20
2018-11-07T20:13:43.073Z,13.20
2018-11-07T20:16:12.516Z,13.20
2018-11-07T20:18:42.983Z,13.20
2018-11-07T20:21:13.321Z,13.20
2018-11-07T20:23:42.497Z,13.20
2018-11-07T20:26:11.969Z,13.20
2018-11-07T20:28:41.632Z,13.20
2018-11-07T20:31:14.975Z,13.20
2018-11-07T20:33:44.262Z,13.20
2018-11-07T20:36:14.719Z,13.20
2018-11-07T20:38:43.943Z,13.30
2018-11-07T20:41:14.899Z,13.30
2018-11-07T20:43:44.172Z,13.40
2018-11-07T20:46:15.290Z,13.50
2018-11-07T20:48:44.606Z,13.50
2018-11-07T20:51:15.424Z,13.50
2018-11-07T20:53:44.782Z,13.50
2018-11-07T20:56:14.923Z,13.60
2018-11-07T20:58:44.128Z,13.50
2018-11-07T21:01:14.548Z,13.50
2018-11-07T21:03:44.404Z,13.50
2018-11-07T21:06:14.216Z,13.50
2018-11-07T21:08:44.329Z,13.60
2018-11-07T21:11:14.024Z,13.60
2018-11-07T21:13:43.395Z,13.60
2018-11-07T21:16:12.515Z,13.60
2018-11-07T21:18:42.010Z,13.60
2018-11-07T21:21:12.128Z,13.60
2018-11-07T21:23:41.379Z,13.60
2018-11-07T21:26:11.675Z,13.70
2018-11-07T21:28:40.845Z,13.60
2018-11-07T21:31:10.820Z,13.50
2018-11-07T21:33:39.991Z,13.50
2018-11-07T21:36:09.210Z,13.50
2018-11-07T21:38:38.561Z,13.40
2018-11-07T21:41:07.930Z,13.50
2018-11-07T21:43:37.116Z,13.50
2018-11-07T21:46:06.440Z,13.50
2018-11-07T21:48:35.594Z,13.50
2018-11-07T21:51:05.480Z,13.40
2018-11-07T21:53:34.677Z,13.40
2018-11-07T21:56:03.976Z,13.40
2018-11-07T21:58:33.131Z,13.30
2018-11-07T22:01:01.881Z,13.30
2018-11-07T22:03:30.537Z,13.30
2018-11-07T22:05:59.159Z,13.30
2018-11-07T22:08:27.876Z,13.20
2018-11-07T22:10:56.554Z,13.20
2018-11-07T22:13:25.368Z,13.20
2018-11-07T22:15:54.120Z,13.20
2018-11-07T22:18:22.890Z,13.20
2018-11-07T22:20:51.761Z,13.20
2018-11-07T22:23:20.664Z,13.10
2018-11-07T22:25:49.630Z,13.20
2018-11-07T22:28:18.638Z,13.10
2018-11-07T22:30:47.355Z,13.20
2018-11-07T22:33:16.376Z,13.10
2018-11-07T22:35:44.978Z,13.00
2018-11-07T22:38:13.562Z,13.00
2018-11-07T22:40:42.288Z,13.00
2018-11-07T22:43:10.922Z,13.00
2018-11-07T22:45:39.622Z,13.00
2018-11-07T22:48:08.230Z,13.00
2018-11-07T22:50:36.992Z,13.00
2018-11-07T22:53:05.817Z,13.00
2018-11-07T22:55:34.511Z,13.00
2018-11-07T22:58:03.212Z,13.00
2018-11-07T23:00:37.377Z,13.00
2018-11-07T23:03:07.000Z,13.00
2018-11-07T23:05:35.672Z,12.90
2018-11-07T23:08:04.265Z,12.90
2018-11-07T23:10:32.862Z,12.90
2018-11-07T23:13:01.409Z,12.90
2018-11-07T23:15:35.408Z,13.00
2018-11-07T23:18:04.026Z,13.00
2018-11-07T23:20:32.700Z,13.00
2018-11-07T23:23:01.346Z,13.00
2018-11-07T23:25:30.080Z,12.90
2018-11-07T23:27:58.862Z,12.90
2018-11-07T23:30:27.556Z,12.90
2018-11-07T23:32:56.148Z,12.80
2018-11-07T23:35:24.936Z,12.80
2018-11-07T23:37:53.542Z,12.70
2018-11-07T23:40:22.996Z,12.70
2018-11-07T23:42:51.721Z,12.70
2018-11-07T23:45:20.480Z,12.60
2018-11-07T23:47:49.253Z,12.50
2018-11-07T23:50:17.878Z,12.50
2018-11-07T23:52:52.602Z,12.50
2018-11-07T23:55:22.867Z,12.50
2018-11-07T23:57:53.198Z,12.40
